createdAt,value
2022-10-27T00:02:21.914Z,72.60
2022-10-27T00:07:25.370Z,72.50
2022-10-27T00:12:30.735Z,72.60
2022-10-27T00:17:34.304Z,72.50
2022-10-27T00:22:37.876Z,72.50
2022-10-27T00:27:41.296Z,72.40
2022-10-27T00:32:46.598Z,72.30
2022-10-27T00:38:00.832Z,72.60
2022-10-27T00:43:32.888Z,72.30
2022-10-27T00:48:36.310Z,72.40
2022-10-27T00:53:39.936Z,72.40
2022-10-27T00:58:46.627Z,72.50
2022-10-27T01:03:50.764Z,72.90
2022-10-27T01:08:57.495Z,72.60
2022-10-27T01:14:01.257Z,72.90
2022-10-27T01:19:32.947Z,73.10
2022-10-27T01:25:04.004Z,73.20
2022-10-27T01:30:09.051Z,73.30
2022-10-27T01:35:28.335Z,73.60
2022-10-27T01:40:46.998Z,73.70
2022-10-27T01:45:51.954Z,73.80
2022-10-27T01:51:02.681Z,74.20
2022-10-27T01:56:32.559Z,74.00
2022-10-27T02:01:50.768Z,74.00
2022-10-27T02:07:19.418Z,74.10
2022-10-27T02:12:31.293Z,74.80
2022-10-27T02:17:46.877Z,74.00
2022-10-27T02:22:54.776Z,73.80
2022-10-27T02:28:06.563Z,74.00
2022-10-27T02:33:11.319Z,73.50
2022-10-27T02:38:14.711Z,73.40
2022-10-27T02:43:18.339Z,73.10
2022-10-27T02:48:24.149Z,73.10
2022-10-27T02:53:27.681Z,73.00
2022-10-27T02:58:31.151Z,72.90
2022-10-27T03:03:34.675Z,73.00
2022-10-27T03:08:38.193Z,73.00
2022-10-27T03:13:41.609Z,73.10
2022-10-27T03:18:45.028Z,73.10
2022-10-27T03:23:48.447Z,72.80
2022-10-27T03:28:51.763Z,72.80
2022-10-27T03:33:55.386Z,72.70
2022-10-27T03:38:58.804Z,72.80
2022-10-27T03:44:02.327Z,72.40
2022-10-27T03:49:05.642Z,72.70
2022-10-27T03:54:09.063Z,72.70
2022-10-27T03:59:12.610Z,72.60
2022-10-27T04:04:16.205Z,72.70
2022-10-27T04:09:19.645Z,73.00
2022-10-27T04:14:23.063Z,72.60
2022-10-27T04:19:26.460Z,72.60
2022-10-27T04:24:37.143Z,72.50
2022-10-27T04:29:42.813Z,72.70
2022-10-27T04:34:47.457Z,72.70
2022-10-27T04:39:53.443Z,72.30
2022-10-27T04:44:56.858Z,72.60
2022-10-27T04:50:00.375Z,72.30
2022-10-27T04:55:04.004Z,71.80
2022-10-27T05:00:08.442Z,72.30
2022-10-27T05:05:12.471Z,72.30
2022-10-27T05:10:16.221Z,72.20
2022-10-27T05:15:19.926Z,72.10
2022-10-27T05:20:24.160Z,72.60
2022-10-27T05:25:27.580Z,72.20
2022-10-27T05:30:31.314Z,72.10
2022-10-27T05:35:34.929Z,72.20
2022-10-27T05:40:38.346Z,72.20
2022-10-27T05:45:41.765Z,72.20
2022-10-27T05:50:45.189Z,71.90
2022-10-27T05:55:49.197Z,72.20
2022-10-27T06:00:52.635Z,72.60
2022-10-27T06:05:56.258Z,72.60
2022-10-27T06:10:59.974Z,72.70
2022-10-27T06:16:03.610Z,72.20
2022-10-27T06:21:07.243Z,72.50
2022-10-27T06:26:11.990Z,72.30
2022-10-27T06:31:16.229Z,72.00
2022-10-27T06:36:20.965Z,71.90
2022-10-27T06:41:24.382Z,71.20
2022-10-27T06:46:27.803Z,71.30
2022-10-27T06:51:33.781Z,71.70
2022-10-27T06:56:37.308Z,71.10
2022-10-27T07:01:43.208Z,71.10
2022-10-27T07:06:48.433Z,70.80
2022-10-27T07:11:52.055Z,71.50
2022-10-27T07:16:55.680Z,71.10
2022-10-27T07:21:59.515Z,71.10
2022-10-27T07:27:04.227Z,69.80
2022-10-27T07:32:09.007Z,69.10
2022-10-27T07:37:12.423Z,68.90
2022-10-27T07:42:17.945Z,68.10
2022-10-27T07:47:21.414Z,67.70
2022-10-27T07:52:25.033Z,67.30
2022-10-27T07:57:28.453Z,67.00
2022-10-27T08:02:32.355Z,66.90
2022-10-27T08:07:36.317Z,66.40
2022-10-27T08:12:44.647Z,66.30
2022-10-27T08:17:54.765Z,66.00
2022-10-27T08:23:00.087Z,66.30
2022-10-27T08:28:05.343Z,66.00
2022-10-27T08:33:18.067Z,66.40
2022-10-27T08:38:21.690Z,66.10
2022-10-27T08:43:47.725Z,66.20
2022-10-27T08:49:02.061Z,66.10
2022-10-27T08:54:07.958Z,66.40
2022-10-27T08:59:20.950Z,67.20
2022-10-27T09:05:01.554Z,68.30
2022-10-27T09:10:20.422Z,68.00
2022-10-27T09:15:28.783Z,67.80
2022-10-27T09:20:55.145Z,67.90
2022-10-27T09:25:59.972Z,67.60
2022-10-27T09:31:07.583Z,67.50
2022-10-27T09:36:15.294Z,67.40
2022-10-27T09:41:18.819Z,67.30
2022-10-27T09:46:25.917Z,66.90
2022-10-27T09:52:02.390Z,67.20
2022-10-27T09:57:19.501Z,66.50
2022-10-27T10:02:33.401Z,65.80
2022-10-27T10:07:40.622Z,65.60
2022-10-27T10:12:44.516Z,65.40
2022-10-27T10:17:57.929Z,65.30
2022-10-27T10:23:04.386Z,65.10
2022-10-27T10:28:24.657Z,64.90
2022-10-27T10:33:35.099Z,65.10
2022-10-27T10:38:49.031Z,64.50
2022-10-27T10:44:15.841Z,64.30
2022-10-27T10:49:27.824Z,64.70
2022-10-27T10:54:37.584Z,64.00
2022-10-27T10:59:45.541Z,64.30
2022-10-27T11:04:49.263Z,63.60
2022-10-27T11:10:13.352Z,63.70
2022-10-27T11:15:38.466Z,63.30
2022-10-27T11:20:45.260Z,63.60
2022-10-27T11:25:50.214Z,63.40
2022-10-27T11:31:28.734Z,63.10
2022-10-27T11:36:47.299Z,63.40
2022-10-27T11:42:29.193Z,63.20
2022-10-27T11:47:57.272Z,63.60
2022-10-27T11:53:12.375Z,63.40
2022-10-27T11:58:26.112Z,63.40
2022-10-27T12:04:05.248Z,63.50
2022-10-27T12:09:39.773Z,63.60
2022-10-27T12:14:54.960Z,63.60
2022-10-27T12:20:27.117Z,63.70
2022-10-27T12:26:21.839Z,63.60
2022-10-27T12:31:29.813Z,64.10
2022-10-27T12:36:45.953Z,63.70
2022-10-27T12:42:07.791Z,64.20
2022-10-27T12:47:17.191Z,63.80
2022-10-27T12:52:28.785Z,64.30
2022-10-27T12:57:40.317Z,64.10
2022-10-27T13:03:12.028Z,64.00
2022-10-27T13:14:12.069Z,64.10
2022-10-27T13:24:59.737Z,64.30
2022-10-27T13:30:08.667Z,64.30
2022-10-27T13:35:12.304Z,64.80
2022-10-27T13:40:21.657Z,64.80
2022-10-27T13:45:28.453Z,64.80
2022-10-27T13:50:34.231Z,64.40
2022-10-27T13:55:40.103Z,64.80
2022-10-27T14:00:58.976Z,64.70
2022-10-27T14:06:04.129Z,64.60
2022-10-27T14:11:21.469Z,65.30
2022-10-27T14:16:34.921Z,65.10
2022-10-27T14:21:59.852Z,65.00
2022-10-27T14:27:08.996Z,65.00
2022-10-27T14:32:32.260Z,65.00
2022-10-27T14:37:46.363Z,65.10
2022-10-27T14:43:01.820Z,65.20
2022-10-27T14:48:34.093Z,65.20
2022-10-27T14:53:59.333Z,65.60
2022-10-27T14:59:33.511Z,65.30
2022-10-27T15:04:40.833Z,65.40
2022-10-27T15:09:53.327Z,65.50
2022-10-27T15:15:02.098Z,65.90
2022-10-27T15:20:21.572Z,65.50
2022-10-27T15:25:28.136Z,65.70
2022-10-27T15:30:33.318Z,65.80
2022-10-27T15:35:39.280Z,66.10
2022-10-27T15:40:45.760Z,66.20
2022-10-27T15:45:54.455Z,65.80
2022-10-27T15:51:11.143Z,65.70
2022-10-27T15:56:32.605Z,66.40
2022-10-27T16:01:37.041Z,66.50
2022-10-27T16:06:49.898Z,66.00
2022-10-27T16:12:02.789Z,66.00
2022-10-27T16:17:22.367Z,65.90
2022-10-27T16:22:31.055Z,66.00
2022-10-27T16:27:41.204Z,65.90
2022-10-27T16:32:49.214Z,66.20
2022-10-27T16:37:56.508Z,66.20
2022-10-27T16:43:05.470Z,66.10
2022-10-27T16:48:13.635Z,66.50
2022-10-27T16:53:20.964Z,66.20
2022-10-27T16:58:25.430Z,66.30
2022-10-27T17:03:28.775Z,66.60
2022-10-27T17:08:35.925Z,66.60
2022-10-27T17:13:39.686Z,66.60
2022-10-27T17:18:44.377Z,67.00
2022-10-27T17:23:48.357Z,66.60
2022-10-27T17:28:52.495Z,66.70
2022-10-27T17:33:57.652Z,67.00
2022-10-27T17:39:01.271Z,66.80
2022-10-27T17:44:05.755Z,67.10
2022-10-27T17:49:09.343Z,66.60
2022-10-27T17:54:14.495Z,66.70
2022-10-27T17:59:20.488Z,66.60
2022-10-27T18:04:23.890Z,66.50
2022-10-27T18:09:27.517Z,67.00
2022-10-27T18:14:31.595Z,67.00
2022-10-27T18:19:41.292Z,67.00
2022-10-27T18:24:46.164Z,66.90
2022-10-27T18:29:49.583Z,67.00
2022-10-27T18:34:53.100Z,67.10
2022-10-27T18:39:57.144Z,67.50
2022-10-27T18:45:01.077Z,67.20
2022-10-27T18:50:11.544Z,67.10
2022-10-27T18:55:16.449Z,67.40
2022-10-27T19:00:20.020Z,68.00
2022-10-27T19:05:23.921Z,68.20
2022-10-27T19:10:30.438Z,68.40
2022-10-27T19:15:36.630Z,68.00
2022-10-27T19:20:52.012Z,68.00
2022-10-27T19:26:04.755Z,67.90
2022-10-27T19:31:17.985Z,68.40
2022-10-27T19:36:35.318Z,68.00
2022-10-27T19:41:42.522Z,68.00
2022-10-27T19:46:51.880Z,68.00
2022-10-27T19:52:20.888Z,68.30
2022-10-27T19:57:42.733Z,68.20
2022-10-27T20:02:57.924Z,68.20
2022-10-27T20:08:16.371Z,68.10
2022-10-27T20:13:24.082Z,68.40
2022-10-27T20:18:27.500Z,68.80
2022-10-27T20:23:39.122Z,69.20
2022-10-27T20:28:42.525Z,68.70
2022-10-27T20:33:46.896Z,69.00
2022-10-27T20:38:53.912Z,69.10
2022-10-27T20:44:19.735Z,69.10
2022-10-27T20:49:26.182Z,69.00
2022-10-27T20:54:33.591Z,69.10
2022-10-27T20:59:52.468Z,69.10
2022-10-27T21:05:08.793Z,69.10
2022-10-27T21:10:12.705Z,69.20
2022-10-27T21:15:16.537Z,69.30
2022-10-27T21:20:27.961Z,69.20
2022-10-27T21:25:39.943Z,69.40
2022-10-27T21:30:53.912Z,69.40
2022-10-27T21:36:14.069Z,71.90
2022-10-27T21:41:20.540Z,73.60
2022-10-27T21:46:26.783Z,73.30
2022-10-27T21:51:31.016Z,73.50
2022-10-27T21:56:36.357Z,73.70
2022-10-27T22:01:40.218Z,73.10
2022-10-27T22:06:44.351Z,73.10
2022-10-27T22:11:47.768Z,72.90
2022-10-27T22:16:51.305Z,73.20
2022-10-27T22:21:54.830Z,72.70
2022-10-27T22:26:58.422Z,72.90
2022-10-27T22:32:10.949Z,72.70
2022-10-27T22:37:14.981Z,72.80
2022-10-27T22:42:20.607Z,72.90
2022-10-27T22:47:23.977Z,72.90
2022-10-27T22:52:27.386Z,72.50
2022-10-27T22:57:31.112Z,73.00
2022-10-27T23:02:34.554Z,72.70
2022-10-27T23:07:38.582Z,72.50
2022-10-27T23:12:42.189Z,72.60
2022-10-27T23:17:45.603Z,72.40
2022-10-27T23:22:49.127Z,72.60
2022-10-27T23:27:53.542Z,72.30
2022-10-27T23:33:10.694Z,72.20
2022-10-27T23:38:14.367Z,72.30
2022-10-27T23:43:18.971Z,72.30
2022-10-27T23:48:22.388Z,72.10
2022-10-27T23:53:27.218Z,72.40
2022-10-27T23:58:33.931Z,72.10
